CheckWX is a tool to help pilots better visualize weather data.  It is not intended as a substitute for an official pre-flight weather briefing.

22:05:34 UTC

LLBG TAF
Ben Gurion International Airport Airport
Tel Aviv, Israel
TAF LLBG 092308Z 1000/1024 VRB04KT 9999 SCT025 BECMG 1006/1008 26010KT FEW030 BECMG 1010/1012 32012KT BECMG 1016/1018 36005KT BECMG 1019/1021 VRB04KT SCT018 PROB30 1022/1024 BKN015 TX30/1010Z TN23/1003Z

Jul-10@
00:00 UTC

Jul-10 @ 00:00 UTC

Jul-10@
06:00 UTC

Jul-10 @ 06:00 UTC

TAF LLBG 092308Z 1000/1024 VRB04KT 9999 SCT025

Expired

Wind
  • Variable at 4 KTS
Cloud Levels
  • Scattered at 2,500' AGL

Jul-10@
06:00 UTC

Jul-10 @ 06:00 UTC

Jul-10@
10:00 UTC

Jul-10 @ 10:00 UTC

BECMG 1006/1008 26010KT FEW030

Expired

Wind
  • 260° at 10 KTS
Cloud Levels
  • Few at 3,000' AGL

Jul-10@
10:00 UTC

Jul-10 @ 10:00 UTC

Jul-10@
16:00 UTC

Jul-10 @ 16:00 UTC

BECMG 1010/1012 32012KT

Expired

Wind
  • 320° at 12 KTS
Cloud Levels
  • Few at 3,000' AGL

Jul-10@
16:00 UTC

Jul-10 @ 16:00 UTC

Jul-10@
19:00 UTC

Jul-10 @ 19:00 UTC

BECMG 1016/1018 36005KT

Expired

Wind
  • 360° at 5 KTS
Cloud Levels
  • Few at 3,000' AGL

Jul-10@
19:00 UTC

Jul-10 @ 19:00 UTC

Jul-11@
00:00 UTC

Jul-11 @ 00:00 UTC

BECMG 1019/1021 VRB04KT SCT018

Becoming

Becoming Conditions expected by Fri, Jul 10, 2020 @ 21:00 UTC

Wind
  • Variable at 4 KTS
Cloud Levels
  • Scattered at 1,800' AGL

Jul-10@
22:00 UTC

Jul-10 @ 22:00 UTC

Jul-11@
00:00 UTC

Jul-11 @ 00:00 UTC

PROB30 1022/1024 BKN015 TX30/1010Z TN23/1003Z

Probable - 30% Likelihood

Probable - 30% Likelihood during this time.

Cloud Levels
  • Broken at 1,500' AGL